createdAt,value
2018-12-20T00:00:35.121Z,85.16
2018-12-20T00:01:14.387Z,86.03
2018-12-20T00:01:51.790Z,85.21
2018-12-20T00:02:29.400Z,85.90
2018-12-20T00:03:06.857Z,84.94
2018-12-20T00:03:49.848Z,85.02
2018-12-20T00:04:27.564Z,84.86
2018-12-20T00:05:05.866Z,85.35
2018-12-20T00:05:47.567Z,85.47
2018-12-20T00:06:26.839Z,85.76
2018-12-20T00:07:04.642Z,85.96
2018-12-20T00:07:43.924Z,85.39
2018-12-20T00:08:21.317Z,85.34
2018-12-20T00:09:04.581Z,85.02
2018-12-20T00:09:42.791Z,85.59
2018-12-20T00:10:34.678Z,84.83
2018-12-20T00:11:12.597Z,84.89
2018-12-20T00:11:50.043Z,85.04
2018-12-20T00:12:27.801Z,85.25
2018-12-20T00:13:06.158Z,85.19
2018-12-20T00:13:44.294Z,86.22
2018-12-20T00:14:29.901Z,85.35
2018-12-20T00:15:04.330Z,85.96
2018-12-20T00:15:41.838Z,84.83
2018-12-20T00:16:25.927Z,85.14
2018-12-20T00:17:11.198Z,84.86
2018-12-20T00:17:53.996Z,85.60
2018-12-20T00:18:35.668Z,85.95
2018-12-20T00:19:27.811Z,85.01
2018-12-20T00:20:15.661Z,86.43
2018-12-20T00:20:56.286Z,85.73
2018-12-20T00:21:41.664Z,84.93
2018-12-20T00:22:24.473Z,85.51
2018-12-20T00:23:09.419Z,84.83
2018-12-20T00:25:32.821Z,85.23
2018-12-20T00:26:11.565Z,85.22
2018-12-20T00:26:49.409Z,84.51
2018-12-20T00:27:27.308Z,84.03
2018-12-20T00:28:05.238Z,84.47
2018-12-20T00:28:45.422Z,84.17
2018-12-20T00:29:23.358Z,83.91
2018-12-20T00:30:02.740Z,85.19
2018-12-20T00:30:41.265Z,84.80
2018-12-20T00:31:18.913Z,85.12
2018-12-20T00:31:58.196Z,83.86
2018-12-20T00:32:35.487Z,84.92
2018-12-20T00:33:14.097Z,83.85
2018-12-20T00:33:54.857Z,83.08
2018-12-20T00:34:32.647Z,82.78
2018-12-20T00:35:15.061Z,83.27
2018-12-20T00:35:52.381Z,83.34
2018-12-20T00:36:29.899Z,82.90
2018-12-20T00:37:10.401Z,83.34
2018-12-20T00:37:48.248Z,81.94
2018-12-20T00:38:25.716Z,82.11
2018-12-20T00:39:03.498Z,83.07
2018-12-20T00:39:40.933Z,82.15
2018-12-20T00:40:21.464Z,81.83
2018-12-20T00:41:00.275Z,81.82
2018-12-20T00:41:37.562Z,82.47
2018-12-20T00:42:16.172Z,81.60
2018-12-20T00:42:54.167Z,82.43
2018-12-20T00:43:31.739Z,81.96
2018-12-20T00:44:09.260Z,82.50
2018-12-20T00:44:50.829Z,81.75
2018-12-20T00:45:28.768Z,81.72
2018-12-20T00:46:06.389Z,81.85
2018-12-20T00:46:46.832Z,80.56
2018-12-20T00:47:24.321Z,81.43
2018-12-20T00:48:01.755Z,81.21
2018-12-20T00:48:39.967Z,81.34
2018-12-20T00:49:17.613Z,80.54
2018-12-20T00:49:56.159Z,80.34
2018-12-20T00:50:33.456Z,79.45
2018-12-20T00:51:11.003Z,79.12
2018-12-20T00:51:48.603Z,79.17
2018-12-20T00:52:33.106Z,79.02
2018-12-20T00:53:11.554Z,78.42
2018-12-20T00:53:49.140Z,78.10
2018-12-20T00:54:26.548Z,78.29
2018-12-20T00:55:08.881Z,78.01
2018-12-20T00:55:47.223Z,79.00
2018-12-20T00:56:24.542Z,77.63
2018-12-20T00:57:07.520Z,78.93
2018-12-20T00:57:45.133Z,78.87
2018-12-20T00:58:23.160Z,78.45
2018-12-20T00:59:00.638Z,78.38
2018-12-20T00:59:38.318Z,77.91
2018-12-20T01:00:21.288Z,77.87
2018-12-20T01:00:58.714Z,76.29
2018-12-20T01:01:36.883Z,75.94
2018-12-20T01:02:14.724Z,76.63
2018-12-20T01:02:55.164Z,76.86
2018-12-20T01:03:31.279Z,75.85
2018-12-20T01:04:14.379Z,76.10
2018-12-20T01:04:55.161Z,76.66
2018-12-20T01:05:34.277Z,76.98
2018-12-20T01:06:16.022Z,76.26
2018-12-20T01:07:02.053Z,76.19
2018-12-20T01:07:43.567Z,77.53
2018-12-20T01:09:17.306Z,76.59
2018-12-20T01:10:01.517Z,77.34
2018-12-20T01:10:49.391Z,77.00
2018-12-20T01:11:34.088Z,77.36
2018-12-20T01:12:17.941Z,75.88
2018-12-20T01:12:59.714Z,76.37
2018-12-20T01:13:43.337Z,75.88
2018-12-20T01:14:30.368Z,77.36
2018-12-20T01:15:19.722Z,77.28
2018-12-20T01:16:00.527Z,77.28
2018-12-20T01:16:38.863Z,77.71
2018-12-20T01:17:29.756Z,76.80
2018-12-20T01:18:14.905Z,76.58
2018-12-20T01:18:56.857Z,77.18
2018-12-20T01:19:39.145Z,77.83
2018-12-20T01:21:15.152Z,76.83
2018-12-20T01:21:55.347Z,76.77
2018-12-20T01:22:32.849Z,77.16
2018-12-20T01:23:13.299Z,76.88
2018-12-20T01:23:50.720Z,77.54
2018-12-20T01:24:28.123Z,76.59
2018-12-20T01:25:05.958Z,76.33
2018-12-20T01:25:43.354Z,76.42
2018-12-20T01:26:25.412Z,76.28
2018-12-20T01:27:02.830Z,76.90
2018-12-20T01:27:40.275Z,76.06
2018-12-20T01:28:20.938Z,76.78
2018-12-20T01:28:59.103Z,76.47
2018-12-20T01:29:36.346Z,76.74
2018-12-20T01:30:16.545Z,75.49
2018-12-20T01:30:54.322Z,76.88
2018-12-20T01:31:32.068Z,76.15
2018-12-20T01:32:12.271Z,76.67
2018-12-20T01:32:49.998Z,75.90
2018-12-20T01:33:27.919Z,75.88
2018-12-20T01:34:09.332Z,77.01
2018-12-20T01:34:49.953Z,75.67
2018-12-20T01:35:27.818Z,76.45
2018-12-20T01:36:06.026Z,75.78
2018-12-20T01:36:43.731Z,76.23
2018-12-20T01:37:22.778Z,75.82
2018-12-20T01:38:00.057Z,74.46
2018-12-20T01:38:37.128Z,75.40
2018-12-20T01:39:14.452Z,75.30
2018-12-20T01:39:52.203Z,75.13
2018-12-20T01:40:29.521Z,75.76
2018-12-20T01:41:07.128Z,75.75
2018-12-20T01:41:45.083Z,74.53
2018-12-20T01:42:24.872Z,74.91
2018-12-20T01:43:05.567Z,74.44
2018-12-20T01:43:42.733Z,75.58
2018-12-20T01:44:20.310Z,74.60
2018-12-20T01:44:57.653Z,73.35
2018-12-20T01:45:35.436Z,72.81
2018-12-20T01:46:18.236Z,72.90
2018-12-20T01:46:56.937Z,72.89
2018-12-20T01:47:34.503Z,73.37
2018-12-20T01:48:11.759Z,73.59
2018-12-20T01:48:49.508Z,73.58
2018-12-20T01:49:28.381Z,73.44
2018-12-20T01:50:07.509Z,73.20
2018-12-20T01:50:45.402Z,72.89
2018-12-20T01:51:22.737Z,72.49
2018-12-20T01:52:01.162Z,71.58
2018-12-20T01:52:40.067Z,71.61
2018-12-20T01:53:17.796Z,70.82
2018-12-20T01:54:00.012Z,70.63
2018-12-20T01:54:43.276Z,70.93
2018-12-20T01:55:21.292Z,71.66
2018-12-20T01:55:58.473Z,71.47
2018-12-20T01:56:38.876Z,70.78
2018-12-20T01:57:16.555Z,71.10
2018-12-20T01:57:54.660Z,70.69
2018-12-20T01:58:34.090Z,71.13
2018-12-20T01:59:11.788Z,70.35
2018-12-20T01:59:49.723Z,69.31
2018-12-20T02:00:27.829Z,68.47
2018-12-20T02:01:05.201Z,68.66
2018-12-20T02:01:44.789Z,68.69
2018-12-20T02:02:22.336Z,68.61
2018-12-20T02:03:00.012Z,68.49
2018-12-20T02:03:38.724Z,67.64
2018-12-20T02:04:16.198Z,67.69
2018-12-20T02:04:54.995Z,67.33
2018-12-20T02:05:32.476Z,67.85
2018-12-20T02:06:09.788Z,67.59
2018-12-20T02:06:48.403Z,66.62
2018-12-20T02:07:25.955Z,67.01
2018-12-20T02:08:02.881Z,66.43
2018-12-20T02:08:41.061Z,65.79
2018-12-20T02:09:18.234Z,66.76
2018-12-20T02:09:55.876Z,65.14
2018-12-20T02:10:37.114Z,65.67
2018-12-20T02:11:14.445Z,64.98
2018-12-20T02:11:51.997Z,65.65
2018-12-20T02:12:36.435Z,64.72
2018-12-20T02:13:13.625Z,64.68
2018-12-20T02:13:51.148Z,64.64
2018-12-20T02:14:28.970Z,64.58
2018-12-20T02:15:07.554Z,64.27
2018-12-20T02:15:45.017Z,64.43
2018-12-20T02:16:22.524Z,64.17
2018-12-20T02:17:03.503Z,63.53
2018-12-20T02:17:47.849Z,63.01
2018-12-20T02:18:25.568Z,62.83
2018-12-20T02:19:03.024Z,62.40
2018-12-20T02:19:40.136Z,62.49
2018-12-20T02:20:17.269Z,62.48
2018-12-20T02:20:55.159Z,62.29
2018-12-20T02:21:37.665Z,62.02
2018-12-20T02:22:14.789Z,61.98
2018-12-20T02:22:52.136Z,62.10
2018-12-20T02:23:30.167Z,62.09
2018-12-20T02:24:07.496Z,61.88
2018-12-20T02:24:45.039Z,61.90
2018-12-20T02:25:22.450Z,61.75
2018-12-20T02:26:00.413Z,61.42
2018-12-20T02:26:39.305Z,61.55
2018-12-20T02:27:16.365Z,61.51
2018-12-20T02:27:54.004Z,61.17
2018-12-20T02:28:33.482Z,61.42
2018-12-20T02:29:11.343Z,61.45
2018-12-20T02:29:49.143Z,61.73
2018-12-20T02:30:26.667Z,62.17
2018-12-20T02:31:04.605Z,62.18
2018-12-20T02:31:42.418Z,62.41
2018-12-20T02:32:24.568Z,62.45
2018-12-20T02:33:06.590Z,62.34
2018-12-20T02:33:46.975Z,62.25
2018-12-20T02:34:26.224Z,62.02
2018-12-20T02:35:05.812Z,61.54
2018-12-20T02:35:43.312Z,61.19
2018-12-20T02:36:21.910Z,60.89
2018-12-20T02:36:59.963Z,61.07
2018-12-20T02:37:37.348Z,61.46
2018-12-20T02:38:14.766Z,61.24
2018-12-20T02:38:52.377Z,61.39
2018-12-20T02:39:31.005Z,61.54
2018-12-20T02:40:08.447Z,61.99
2018-12-20T02:40:48.224Z,62.18
2018-12-20T02:41:26.113Z,61.78
2018-12-20T02:42:03.514Z,61.87
2018-12-20T02:42:42.457Z,61.84
2018-12-20T02:43:19.931Z,62.22
2018-12-20T02:43:57.412Z,62.39
2018-12-20T02:44:34.830Z,62.13
2018-12-20T02:45:12.403Z,62.14
2018-12-20T02:45:51.032Z,61.99
2018-12-20T02:46:28.497Z,61.93
2018-12-20T02:47:05.973Z,61.68
2018-12-20T02:47:43.478Z,61.47
2018-12-20T02:48:21.207Z,61.47
2018-12-20T02:48:59.629Z,61.32
2018-12-20T02:49:37.266Z,61.37
2018-12-20T02:50:14.733Z,61.25
2018-12-20T02:50:53.049Z,61.51
2018-12-20T02:51:33.783Z,61.01
2018-12-20T02:52:11.336Z,61.14
2018-12-20T02:52:54.978Z,61.42
2018-12-20T02:53:32.202Z,61.56
2018-12-20T02:54:14.962Z,61.22
2018-12-20T02:54:52.630Z,61.04
2018-12-20T02:55:30.087Z,60.40
2018-12-20T02:56:09.420Z,60.58
2018-12-20T02:56:47.175Z,60.19
2018-12-20T02:57:27.063Z,59.99
2018-12-20T02:58:08.022Z,60.02
2018-12-20T02:58:45.075Z,60.07
2018-12-20T02:59:22.475Z,60.00
2018-12-20T03:00:00.707Z,59.71
2018-12-20T03:00:37.986Z,59.84
2018-12-20T03:01:22.786Z,59.72
2018-12-20T03:02:02.227Z,59.50
2018-12-20T03:02:39.360Z,59.10
2018-12-20T03:03:16.663Z,59.06
2018-12-20T03:03:57.450Z,59.07
2018-12-20T03:04:34.844Z,59.11
2018-12-20T03:05:12.075Z,59.38
2018-12-20T03:05:55.116Z,59.12
2018-12-20T03:06:35.757Z,59.17
2018-12-20T03:07:13.924Z,59.07
2018-12-20T03:07:51.036Z,58.81
2018-12-20T03:08:34.773Z,58.60
2018-12-20T03:09:13.112Z,58.93
2018-12-20T03:09:51.466Z,59.15
2018-12-20T03:10:29.053Z,59.29
2018-12-20T03:11:06.341Z,59.46
2018-12-20T03:11:44.025Z,59.36
2018-12-20T03:12:21.741Z,59.08
2018-12-20T03:12:59.487Z,58.98
2018-12-20T03:13:39.420Z,58.58
2018-12-20T03:14:17.420Z,58.76
2018-12-20T03:14:57.209Z,58.86
2018-12-20T03:15:35.706Z,58.98
2018-12-20T03:16:13.467Z,58.85
2018-12-20T03:16:55.767Z,58.97
2018-12-20T03:17:34.021Z,58.67
2018-12-20T03:18:11.961Z,58.69
2018-12-20T03:18:49.528Z,58.03
2018-12-20T03:19:27.870Z,57.93
2018-12-20T03:20:10.143Z,58.46
2018-12-20T03:20:47.172Z,58.38
2018-12-20T03:21:24.939Z,57.91
2018-12-20T03:22:02.861Z,57.02
2018-12-20T03:22:44.582Z,57.95
2018-12-20T03:23:22.538Z,57.72
2018-12-20T03:23:59.804Z,57.38
2018-12-20T03:24:37.334Z,56.90
2018-12-20T03:25:14.784Z,56.40
2018-12-20T03:25:56.346Z,56.30
2018-12-20T03:26:37.526Z,56.42
2018-12-20T03:27:15.021Z,56.37
2018-12-20T03:27:53.101Z,56.88
2018-12-20T03:28:33.374Z,56.64
2018-12-20T03:29:11.013Z,57.16
2018-12-20T03:29:48.522Z,57.32
2018-12-20T03:30:27.118Z,57.69
2018-12-20T03:31:23.201Z,57.79
2018-12-20T03:32:01.911Z,57.85
2018-12-20T03:32:39.772Z,57.88
2018-12-20T03:33:18.559Z,57.16
2018-12-20T03:33:55.590Z,57.17
2018-12-20T03:34:34.741Z,57.38
2018-12-20T03:35:13.116Z,57.34
2018-12-20T03:35:50.770Z,57.67
2018-12-20T03:36:28.410Z,57.44
2018-12-20T03:37:05.853Z,57.14
2018-12-20T03:37:43.468Z,57.23
2018-12-20T03:38:21.113Z,57.37
2018-12-20T03:38:58.707Z,57.26
2018-12-20T03:39:36.571Z,57.68
2018-12-20T03:40:14.194Z,57.35
2018-12-20T03:40:51.875Z,56.73
2018-12-20T03:41:29.309Z,57.24
2018-12-20T03:42:07.312Z,57.42
2018-12-20T03:42:44.696Z,57.01
2018-12-20T03:43:22.430Z,56.77
2018-12-20T03:44:00.011Z,56.91
2018-12-20T03:44:37.313Z,57.16
2018-12-20T03:45:14.964Z,57.43
2018-12-20T03:45:52.768Z,56.19
2018-12-20T03:46:32.410Z,55.78
2018-12-20T03:47:13.357Z,55.68
2018-12-20T03:47:50.928Z,56.45
2018-12-20T03:48:28.252Z,56.67
2018-12-20T03:49:05.810Z,56.60
2018-12-20T03:49:43.048Z,56.97
2018-12-20T03:50:20.812Z,57.09
2018-12-20T03:50:58.324Z,56.98
2018-12-20T03:51:36.246Z,57.09
2018-12-20T03:52:17.523Z,57.00
2018-12-20T03:52:55.292Z,57.12
2018-12-20T03:53:32.580Z,57.04
2018-12-20T03:54:10.047Z,57.27
2018-12-20T03:54:48.326Z,57.16
2018-12-20T03:55:25.702Z,57.37
2018-12-20T03:56:05.142Z,57.16
2018-12-20T03:56:45.966Z,57.53
2018-12-20T03:57:24.838Z,57.30
2018-12-20T03:58:02.293Z,57.60
2018-12-20T03:58:41.249Z,57.91
2018-12-20T03:59:18.446Z,57.99
2018-12-20T03:59:56.253Z,57.72
2018-12-20T04:00:33.851Z,57.65
2018-12-20T04:01:11.286Z,57.47
2018-12-20T04:01:50.054Z,57.62
2018-12-20T04:02:29.201Z,57.48
2018-12-20T04:03:06.734Z,57.63
2018-12-20T04:03:44.011Z,57.55
2018-12-20T04:04:26.659Z,57.71
2018-12-20T04:05:04.711Z,57.74
2018-12-20T04:05:42.144Z,57.66
2018-12-20T04:06:23.369Z,57.24
2018-12-20T04:07:00.648Z,57.46
2018-12-20T04:07:39.145Z,57.64
2018-12-20T04:08:17.483Z,58.39
2018-12-20T04:08:55.296Z,57.56
2018-12-20T04:09:32.944Z,56.97
2018-12-20T04:10:10.520Z,57.10
2018-12-20T04:10:48.122Z,56.47
2018-12-20T04:11:26.417Z,56.96
2018-12-20T04:12:04.113Z,56.74
2018-12-20T04:12:41.587Z,57.18
2018-12-20T04:13:19.980Z,56.38
2018-12-20T04:13:58.116Z,56.54
2018-12-20T04:14:35.729Z,57.20
2018-12-20T04:15:18.605Z,57.66
2018-12-20T04:15:59.849Z,56.94
2018-12-20T04:16:38.574Z,56.87
2018-12-20T04:17:15.990Z,56.33
2018-12-20T04:17:56.185Z,56.59
2018-12-20T04:18:34.003Z,57.00
2018-12-20T04:19:11.527Z,56.48
2018-12-20T04:19:49.135Z,55.66
2018-12-20T04:20:33.872Z,55.19
2018-12-20T04:21:11.893Z,55.47
2018-12-20T04:21:50.406Z,55.24
2018-12-20T04:22:27.972Z,54.83
2018-12-20T04:23:04.833Z,55.04
2018-12-20T04:23:42.192Z,55.48
2018-12-20T04:24:19.387Z,55.17
2018-12-20T04:24:56.742Z,55.30
2018-12-20T04:25:35.376Z,56.27
2018-12-20T04:26:13.250Z,56.15
2018-12-20T04:26:50.890Z,55.43
2018-12-20T04:27:29.529Z,55.91
2018-12-20T04:28:08.716Z,55.73
2018-12-20T04:28:46.215Z,54.43
2018-12-20T04:29:23.650Z,55.42
2018-12-20T04:30:01.631Z,56.20
2018-12-20T04:31:07.462Z,56.47
2018-12-20T04:31:45.367Z,55.81
2018-12-20T04:32:22.760Z,55.03
2018-12-20T04:32:59.991Z,54.57
2018-12-20T04:33:37.414Z,54.94
2018-12-20T04:34:14.541Z,55.42
2018-12-20T04:34:52.389Z,56.04
2018-12-20T04:35:30.829Z,56.34
2018-12-20T04:36:09.411Z,56.61
2018-12-20T04:36:47.570Z,57.05
2018-12-20T04:37:27.526Z,57.05
2018-12-20T04:38:06.014Z,56.87
2018-12-20T04:38:43.160Z,56.90
2018-12-20T04:39:24.419Z,56.88
2018-12-20T04:40:02.330Z,57.31
2018-12-20T04:40:39.955Z,57.59
2018-12-20T04:41:18.332Z,57.56
2018-12-20T04:41:56.017Z,57.59
2018-12-20T04:42:33.981Z,56.85
2018-12-20T04:43:11.844Z,57.10
2018-12-20T04:43:49.885Z,56.37
2018-12-20T04:44:27.282Z,56.21
2018-12-20T04:45:04.697Z,56.34
2018-12-20T04:45:46.639Z,54.65
2018-12-20T04:46:21.959Z,55.13
2018-12-20T04:46:59.695Z,54.73
2018-12-20T04:47:37.870Z,55.03
2018-12-20T04:48:17.609Z,54.75
2018-12-20T04:48:55.485Z,54.17
2018-12-20T04:49:39.310Z,54.73
2018-12-20T04:50:17.295Z,54.79
2018-12-20T04:50:54.810Z,54.71
2018-12-20T04:51:32.330Z,54.81
2018-12-20T04:52:13.656Z,54.46
2018-12-20T04:52:53.106Z,53.68
2018-12-20T04:53:31.579Z,54.50
2018-12-20T04:54:11.958Z,54.28
2018-12-20T04:54:49.517Z,54.61
2018-12-20T04:55:26.711Z,54.51
2018-12-20T04:56:04.056Z,54.52
2018-12-20T04:56:41.582Z,54.27
2018-12-20T04:57:20.306Z,55.97
2018-12-20T04:58:00.724Z,55.33
2018-12-20T04:58:38.285Z,54.64
2018-12-20T04:59:16.227Z,55.29
2018-12-20T04:59:57.401Z,54.65
2018-12-20T05:00:34.721Z,55.24
2018-12-20T05:01:12.044Z,55.35
2018-12-20T05:01:51.991Z,55.19
2018-12-20T05:02:29.827Z,56.01
2018-12-20T05:03:07.197Z,55.61
2018-12-20T05:03:46.730Z,55.43
2018-12-20T05:04:24.545Z,55.60
2018-12-20T05:05:02.061Z,55.14
2018-12-20T05:05:39.482Z,55.42
2018-12-20T05:06:16.896Z,55.23
2018-12-20T05:06:54.634Z,53.74
2018-12-20T05:07:32.760Z,53.46
2018-12-20T05:08:09.858Z,53.41
2018-12-20T05:08:47.050Z,55.00
2018-12-20T05:09:24.111Z,54.29
2018-12-20T05:10:01.934Z,54.41
2018-12-20T05:10:39.273Z,54.74
2018-12-20T05:11:16.860Z,53.53
2018-12-20T05:11:55.466Z,52.95
2018-12-20T05:12:33.092Z,52.69
2018-12-20T05:13:14.626Z,52.53
2018-12-20T05:13:52.117Z,52.53
2018-12-20T05:14:29.643Z,53.03
2018-12-20T05:15:09.105Z,54.13
2018-12-20T05:15:55.862Z,53.87
2018-12-20T05:16:26.839Z,54.96
2018-12-20T05:17:04.032Z,54.94
2018-12-20T05:17:41.778Z,53.74
2018-12-20T05:18:20.542Z,54.14
2018-12-20T05:19:00.106Z,54.64
2018-12-20T05:19:37.671Z,54.70
2018-12-20T05:20:14.722Z,54.74
2018-12-20T05:20:54.567Z,54.60
2018-12-20T05:21:32.245Z,54.61
2018-12-20T05:22:09.891Z,54.53
2018-12-20T05:22:47.784Z,54.85
2018-12-20T05:23:25.911Z,54.79
2018-12-20T05:24:04.137Z,54.32
2018-12-20T05:24:41.104Z,54.63
2018-12-20T05:25:24.231Z,54.38
2018-12-20T05:26:01.680Z,53.40
2018-12-20T05:26:38.737Z,53.17
2018-12-20T05:27:17.534Z,54.09
2018-12-20T05:27:55.668Z,53.19
2018-12-20T05:28:33.068Z,54.18
2018-12-20T05:29:11.221Z,53.43
2018-12-20T05:29:48.534Z,53.76
2018-12-20T05:30:26.211Z,53.81
2018-12-20T05:31:05.124Z,54.21
2018-12-20T05:31:43.629Z,53.94
2018-12-20T05:32:21.531Z,53.28
2018-12-20T05:32:58.932Z,53.95
2018-12-20T05:33:36.506Z,54.12
2018-12-20T05:34:14.778Z,53.18
2018-12-20T05:34:55.810Z,53.86
2018-12-20T05:35:33.121Z,53.80
2018-12-20T05:36:15.354Z,54.40
2018-12-20T05:36:56.035Z,55.14
2018-12-20T05:37:33.230Z,53.88
2018-12-20T05:38:10.626Z,54.73
2018-12-20T05:38:48.065Z,54.94
2018-12-20T05:39:25.954Z,55.07
2018-12-20T05:40:03.470Z,54.96
2018-12-20T05:40:56.130Z,54.74
2018-12-20T05:41:33.825Z,53.36
2018-12-20T05:42:13.379Z,53.46
2018-12-20T05:42:51.039Z,52.38
2018-12-20T05:43:28.749Z,52.79
2018-12-20T05:44:06.232Z,52.71
2018-12-20T05:44:43.888Z,52.72
2018-12-20T05:45:25.769Z,52.63
2018-12-20T05:46:04.590Z,52.79
2018-12-20T05:46:42.234Z,53.73
2018-12-20T05:47:19.704Z,53.76
2018-12-20T05:47:57.120Z,53.42
2018-12-20T05:48:41.494Z,53.25
2018-12-20T05:49:18.853Z,53.48
2018-12-20T05:49:56.677Z,52.76
2018-12-20T05:50:37.700Z,53.43
2018-12-20T05:51:15.431Z,53.55
2018-12-20T05:52:45.482Z,52.48
2018-12-20T05:53:23.571Z,52.40
2018-12-20T05:54:01.013Z,53.21
2018-12-20T05:54:39.389Z,53.22
2018-12-20T05:55:17.311Z,53.71
2018-12-20T05:55:56.130Z,53.64
2018-12-20T05:56:34.681Z,54.72
2018-12-20T05:57:16.025Z,54.61
2018-12-20T05:57:53.428Z,54.12
2018-12-20T05:58:30.895Z,55.16
2018-12-20T05:59:08.732Z,55.29
2018-12-20T05:59:45.937Z,54.52
2018-12-20T06:00:23.569Z,55.64
2018-12-20T06:01:03.305Z,55.65
2018-12-20T06:01:40.345Z,55.70
2018-12-20T06:02:18.058Z,54.89
2018-12-20T06:02:56.518Z,55.19
2018-12-20T06:03:34.126Z,54.89
2018-12-20T06:04:11.615Z,55.36
2018-12-20T06:04:49.181Z,55.70
2018-12-20T06:05:26.894Z,56.12
2018-12-20T06:06:04.452Z,56.27
2018-12-20T06:06:42.609Z,56.28
2018-12-20T06:07:20.217Z,55.99
2018-12-20T06:07:57.518Z,55.12
2018-12-20T06:08:37.519Z,55.06
2018-12-20T06:09:15.192Z,54.98
2018-12-20T06:09:53.196Z,55.36
2018-12-20T06:10:30.561Z,55.27
2018-12-20T06:11:57.169Z,56.15
2018-12-20T06:12:34.553Z,56.50
2018-12-20T06:13:12.867Z,56.85
2018-12-20T06:13:50.777Z,57.48
2018-12-20T06:14:29.037Z,56.28
2018-12-20T06:15:06.823Z,56.85
2018-12-20T06:15:44.408Z,56.71
2018-12-20T06:16:22.756Z,56.80
2018-12-20T06:16:59.994Z,55.94
2018-12-20T06:17:40.384Z,55.79
2018-12-20T06:18:17.186Z,56.03
2018-12-20T06:18:54.951Z,55.47
2018-12-20T06:19:32.583Z,54.83
2018-12-20T06:20:11.037Z,54.86
2018-12-20T06:20:48.481Z,55.76
2018-12-20T06:21:25.895Z,55.21
2018-12-20T06:22:03.539Z,55.14
2018-12-20T06:22:41.459Z,55.40
2018-12-20T06:23:20.139Z,54.92
2018-12-20T06:24:03.006Z,55.05
2018-12-20T06:24:40.737Z,55.08
2018-12-20T06:25:18.258Z,55.08
2018-12-20T06:25:55.617Z,55.12
2018-12-20T06:26:33.896Z,55.28
2018-12-20T06:27:11.147Z,54.42
2018-12-20T06:27:52.103Z,54.66
2018-12-20T06:28:29.499Z,55.36
2018-12-20T06:29:07.017Z,54.80
2018-12-20T06:29:46.398Z,55.74
2018-12-20T06:30:24.277Z,55.69
2018-12-20T06:31:01.493Z,55.68
2018-12-20T06:31:41.682Z,55.38
2018-12-20T06:32:22.549Z,55.46
2018-12-20T06:32:59.789Z,55.25
2018-12-20T06:33:36.768Z,55.41
2018-12-20T06:34:19.389Z,54.64
2018-12-20T06:34:57.062Z,53.83
2018-12-20T06:35:40.767Z,53.64
2018-12-20T06:36:17.655Z,53.44
2018-12-20T06:36:55.044Z,53.20
2018-12-20T06:37:32.524Z,54.66
2018-12-20T06:38:19.003Z,54.49
2018-12-20T06:38:56.797Z,55.20
2018-12-20T06:39:33.950Z,56.02
2018-12-20T06:40:17.845Z,55.85
2018-12-20T06:40:55.050Z,55.86
2018-12-20T06:41:32.441Z,55.03
2018-12-20T06:42:12.541Z,54.76
2018-12-20T06:42:51.859Z,54.71
2018-12-20T06:43:30.260Z,55.26
2018-12-20T06:44:09.297Z,54.42
2018-12-20T06:44:46.750Z,54.23
2018-12-20T06:45:24.005Z,54.48
2018-12-20T06:46:02.895Z,55.25
2018-12-20T06:46:43.645Z,56.26
2018-12-20T06:47:21.182Z,56.54
2018-12-20T06:47:58.641Z,56.23
2018-12-20T06:48:36.255Z,56.04
2018-12-20T06:49:13.918Z,56.30
2018-12-20T06:49:52.860Z,57.03
2018-12-20T06:50:36.406Z,56.88
2018-12-20T06:51:15.521Z,56.63
2018-12-20T06:51:56.008Z,55.88
2018-12-20T06:52:33.619Z,56.04
2018-12-20T06:53:10.673Z,55.59
2018-12-20T06:53:51.996Z,54.88
2018-12-20T06:54:29.089Z,55.50
2018-12-20T06:55:06.671Z,56.46
2018-12-20T06:55:47.766Z,56.88
2018-12-20T06:56:25.182Z,56.45
2018-12-20T06:57:02.759Z,57.63
2018-12-20T06:57:40.119Z,57.60
2018-12-20T06:58:17.617Z,58.08
2018-12-20T06:59:00.221Z,57.41
2018-12-20T06:59:38.549Z,56.66
2018-12-20T07:00:15.881Z,56.45
2018-12-20T07:00:57.211Z,57.77
2018-12-20T07:01:34.726Z,57.32
2018-12-20T07:02:15.675Z,56.63
2018-12-20T07:02:53.120Z,57.11
2018-12-20T07:03:30.924Z,56.62
2018-12-20T07:04:08.732Z,57.23
2018-12-20T07:04:46.773Z,57.29
2018-12-20T07:05:24.673Z,57.49
2018-12-20T07:06:02.944Z,57.24
2018-12-20T07:06:41.081Z,56.96
2018-12-20T07:07:19.001Z,56.57
2018-12-20T07:07:58.344Z,56.64
2018-12-20T07:08:37.030Z,55.75
2018-12-20T07:09:15.828Z,56.50
2018-12-20T07:09:56.117Z,56.42
2018-12-20T07:10:33.712Z,57.38
2018-12-20T07:11:11.012Z,57.74
2018-12-20T07:11:48.820Z,57.43
2018-12-20T07:12:30.969Z,57.42
2018-12-20T07:13:12.711Z,58.06
2018-12-20T07:13:50.052Z,58.12
2018-12-20T07:14:28.078Z,56.46
2018-12-20T07:15:05.440Z,56.68
2018-12-20T07:15:42.830Z,57.44
2018-12-20T07:16:20.529Z,57.77
2018-12-20T07:16:57.912Z,57.90
2018-12-20T07:17:35.420Z,58.32
2018-12-20T07:18:12.973Z,58.48
2018-12-20T07:18:51.535Z,58.78
2018-12-20T07:19:28.954Z,58.41
2018-12-20T07:20:07.154Z,58.98
2018-12-20T07:20:45.295Z,59.36
2018-12-20T07:21:23.921Z,59.76
2018-12-20T07:22:05.160Z,59.23
2018-12-20T07:22:43.047Z,59.92
2018-12-20T07:23:20.856Z,59.50
2018-12-20T07:23:58.551Z,60.21
2018-12-20T07:24:36.054Z,59.51
2018-12-20T07:25:14.766Z,59.31
2018-12-20T07:25:52.252Z,60.27
2018-12-20T07:26:29.607Z,59.99
2018-12-20T07:27:07.000Z,59.99
2018-12-20T07:27:44.639Z,59.37
2018-12-20T07:28:22.057Z,59.51
2018-12-20T07:28:59.243Z,59.38
2018-12-20T07:29:36.541Z,59.66
2018-12-20T07:30:14.355Z,60.44
2018-12-20T07:30:51.995Z,60.57
2018-12-20T07:31:29.482Z,59.91
2018-12-20T07:32:06.501Z,59.68
2018-12-20T07:32:43.955Z,59.59
2018-12-20T07:33:21.581Z,59.60
2018-12-20T07:33:58.410Z,59.84
2018-12-20T07:34:39.391Z,59.46
2018-12-20T07:35:18.165Z,59.57
2018-12-20T07:36:02.090Z,59.87
2018-12-20T07:36:40.016Z,59.98
2018-12-20T07:37:20.052Z,59.79
2018-12-20T07:37:58.238Z,59.15
2018-12-20T07:38:38.525Z,59.67
2018-12-20T07:39:19.265Z,59.71
2018-12-20T07:39:56.380Z,59.69
2018-12-20T07:40:34.128Z,59.89
2018-12-20T07:41:11.105Z,59.61
2018-12-20T07:41:49.996Z,59.26
2018-12-20T07:42:26.749Z,58.62
2018-12-20T07:43:03.758Z,58.41
2018-12-20T07:43:44.568Z,58.38
2018-12-20T07:44:21.474Z,58.58
2018-12-20T07:44:59.416Z,58.59
2018-12-20T07:45:37.491Z,58.64
2018-12-20T07:46:16.383Z,58.32
2018-12-20T07:46:53.513Z,58.43
2018-12-20T07:48:15.597Z,58.89
2018-12-20T07:48:53.320Z,58.56
2018-12-20T07:49:32.252Z,58.97
2018-12-20T07:50:10.309Z,58.46
2018-12-20T07:50:47.439Z,58.52
2018-12-20T07:51:29.434Z,58.44
2018-12-20T07:52:13.164Z,58.07
2018-12-20T07:52:51.961Z,58.00
2018-12-20T07:53:30.298Z,57.32
2018-12-20T07:54:09.188Z,57.01
2018-12-20T07:54:45.993Z,56.87
2018-12-20T07:55:22.850Z,57.28
2018-12-20T07:56:44.688Z,57.03
2018-12-20T07:57:21.560Z,56.87
2018-12-20T07:58:03.971Z,56.46
2018-12-20T07:58:40.759Z,56.24
2018-12-20T07:59:23.444Z,56.23
2018-12-20T08:00:05.604Z,56.48
2018-12-20T08:00:43.325Z,56.10
2018-12-20T08:01:20.276Z,56.35
2018-12-20T08:02:04.445Z,56.07
2018-12-20T08:02:41.723Z,56.65
2018-12-20T08:03:18.721Z,56.53
2018-12-20T08:04:03.210Z,56.68
2018-12-20T08:04:41.974Z,55.82
2018-12-20T08:05:18.859Z,56.42
2018-12-20T08:06:07.919Z,56.52
2018-12-20T08:06:45.078Z,56.52
2018-12-20T08:07:21.934Z,55.89
2018-12-20T08:07:59.508Z,55.87
2018-12-20T08:08:37.258Z,55.51
2018-12-20T08:09:15.670Z,55.57
2018-12-20T08:09:59.946Z,55.10
2018-12-20T08:10:44.612Z,53.73
2018-12-20T08:11:21.669Z,53.88
2018-12-20T08:11:59.573Z,52.52
2018-12-20T08:12:37.918Z,52.68
2018-12-20T08:13:15.884Z,51.89
2018-12-20T08:13:53.231Z,51.83
2018-12-20T08:14:32.219Z,51.21
2018-12-20T08:15:10.500Z,50.36
2018-12-20T08:15:50.688Z,49.32
2018-12-20T08:16:46.038Z,50.20
2018-12-20T08:17:20.644Z,49.55
2018-12-20T08:17:57.842Z,50.17
2018-12-20T08:18:37.397Z,49.37
2018-12-20T08:19:14.240Z,49.28
2018-12-20T08:19:52.383Z,49.63
2018-12-20T08:20:29.131Z,50.39
2018-12-20T08:21:07.639Z,50.68
2018-12-20T08:21:47.835Z,50.44
2018-12-20T08:22:24.672Z,49.23
2018-12-20T08:23:03.301Z,48.80
2018-12-20T08:23:40.226Z,48.39
2018-12-20T08:24:17.344Z,48.36
2018-12-20T08:24:59.734Z,48.16
2018-12-20T08:25:36.503Z,48.58
2018-12-20T08:26:13.588Z,48.45
2018-12-20T08:27:00.075Z,48.54